Time;durP1;ratioP1;P1;durP2;ratioP2;P2;SDS_P1;SDS_P2;PMS_P1;PMS_P2;Temp;Humidity;BMP_temperature;BMP_pressure;BME280_temperature;BME280_humidity;BME280_pressure;Samples;Min_cycle;Max_cycle;Signal;HPM_P1;HPM_P2
2022/06/01 00:00:12;;;;;;;0.63;0.50;;;;;;;29.04;29.21;101047.56;4890341;29;20468;-77
2022/06/01 00:02:43;;;;;;;0.93;0.57;;;;;;;29.04;28.45;101044.91;4892163;29;20107;-75
2022/06/01 00:05:12;;;;;;;1.90;0.50;;;;;;;28.93;29.10;101038.31;4894926;29;20080;-77
2022/06/01 00:07:41;;;;;;;0.75;0.50;;;;;;;28.71;29.28;101036.56;4895737;29;20048;-76
2022/06/01 00:10:10;;;;;;;0.80;0.57;;;;;;;28.48;31.03;101037.53;4893874;29;20712;-77
2022/06/01 00:12:39;;;;;;;1.00;0.50;;;;;;;28.28;30.61;101043.59;4900123;29;20334;-76
2022/06/01 00:15:11;;;;;;;0.45;0.40;;;;;;;28.32;29.56;101041.69;4905195;29;20053;-77
2022/06/01 00:17:40;;;;;;;1.23;0.70;;;;;;;28.32;30.01;101039.03;4910489;29;20083;-76
2022/06/01 00:20:09;;;;;;;0.90;0.60;;;;;;;28.19;30.92;101039.50;4900915;29;20048;-76
2022/06/01 00:22:38;;;;;;;1.60;0.88;;;;;;;28.23;29.75;101040.28;4897348;29;20057;-76
2022/06/01 00:25:08;;;;;;;0.55;0.50;;;;;;;28.22;31.34;101030.53;4902323;29;20410;-76
2022/06/01 00:27:37;;;;;;;0.85;0.70;;;;;;;28.20;31.74;101032.41;4895328;29;20048;-77
2022/06/01 00:30:09;;;;;;;0.55;0.40;;;;;;;28.18;31.80;101029.81;4895501;29;20044;-76
2022/06/01 00:32:39;;;;;;;0.70;0.50;;;;;;;28.17;32.00;101038.69;4892326;29;20079;-77
2022/06/01 00:35:10;;;;;;;1.70;0.70;;;;;;;28.16;31.59;101025.47;4893605;29;20045;-77
2022/06/01 00:37:39;;;;;;;1.60;0.50;;;;;;;28.11;31.12;101019.47;4902719;29;20044;-76
2022/06/01 00:40:10;;;;;;;0.95;0.60;;;;;;;28.12;30.46;101021.19;4904743;29;20326;-77
2022/06/01 00:42:41;;;;;;;1.85;0.60;;;;;;;28.11;31.36;101020.34;4897047;29;20078;-76
2022/06/01 00:45:21;;;;;;;1.83;0.70;;;;;;;28.08;30.68;101022.25;4896149;29;20087;-76
2022/06/01 00:47:51;;;;;;;2.45;0.60;;;;;;;28.08;29.78;101016.91;4897606;28;20132;-76
2022/06/01 00:50:25;;;;;;;1.00;0.50;;;;;;;28.04;31.08;101010.88;4892584;29;20055;-76
2022/06/01 00:52:58;;;;;;;1.88;0.50;;;;;;;28.04;32.56;101012.63;4888359;29;20045;-76
2022/06/01 00:55:31;;;;;;;0.60;0.52;;;;;;;28.04;31.37;101013.53;4889897;29;20053;-75
2022/06/01 00:58:04;;;;;;;1.30;0.60;;;;;;;28.03;30.95;101013.59;4900006;29;20048;-75
2022/06/01 01:00:35;;;;;;;2.30;0.38;;;;;;;27.96;30.88;101011.16;4893746;29;20060;-76
2022/06/01 01:03:10;;;;;;;0.55;0.50;;;;;;;27.91;30.40;101010.47;4889481;29;20045;-75
2022/06/01 01:05:41;;;;;;;1.83;0.60;;;;;;;27.85;31.61;101004.53;4879214;29;20045;-75
2022/06/01 01:08:10;;;;;;;1.02;0.60;;;;;;;27.77;30.33;100996.81;4890137;29;20044;-75
2022/06/01 01:10:38;;;;;;;1.13;0.52;;;;;;;27.77;30.68;100997.69;4887799;29;20116;-75
2022/06/01 01:13:10;;;;;;;3.30;0.50;;;;;;;27.74;31.19;100999.56;4892271;29;20076;-75
2022/06/01 01:15:41;;;;;;;1.30;0.52;;;;;;;27.73;31.53;100992.53;4887614;29;20056;-75
2022/06/01 01:18:17;;;;;;;1.63;0.50;;;;;;;27.67;31.09;100996.31;4881777;29;20048;-75
2022/06/01 01:20:56;;;;;;;0.70;0.50;;;;;;;27.65;30.72;100992.84;4889933;29;20056;-75
2022/06/01 01:23:32;;;;;;;1.35;0.47;;;;;;;27.60;30.78;100986.81;4884217;29;20109;-75
2022/06/01 01:26:03;;;;;;;2.40;0.50;;;;;;;27.54;31.50;100981.75;4892987;29;20488;-76
2022/06/01 01:28:32;;;;;;;1.05;0.50;;;;;;;27.51;31.75;100984.50;4881832;29;20053;-75
2022/06/01 01:31:06;;;;;;;0.85;0.40;;;;;;;27.44;31.66;100983.00;4893204;29;20049;-76
2022/06/01 01:33:35;;;;;;;0.52;0.50;;;;;;;27.41;31.71;100983.13;4887602;29;20115;-75
2022/06/01 01:36:06;;;;;;;3.00;0.60;;;;;;;27.39;31.49;100974.34;4896735;29;20049;-75
2022/06/01 01:38:42;;;;;;;1.00;0.30;;;;;;;27.29;32.24;100964.03;4899192;29;20184;-75
2022/06/01 01:41:20;;;;;;;0.60;0.40;;;;;;;27.24;31.71;100970.47;4893320;29;20052;-76
2022/06/01 01:43:59;;;;;;;0.70;0.50;;;;;;;27.15;32.11;100966.31;4891579;29;20049;-75
2022/06/01 01:46:29;;;;;;;2.28;0.55;;;;;;;27.06;32.46;100961.34;4892363;29;20128;-76
2022/06/01 01:48:57;;;;;;;1.35;0.40;;;;;;;27.01;32.67;100955.28;4894701;28;20060;-76
2022/06/01 01:51:29;;;;;;;0.55;0.50;;;;;;;26.91;32.51;100957.41;4892738;29;20508;-74
2022/06/01 01:53:59;;;;;;;2.35;0.60;;;;;;;26.86;32.97;100957.59;4887936;29;20060;-74
2022/06/01 01:56:47;;;;;;;0.35;0.32;;;;;;;26.84;32.55;100959.41;4893316;29;20147;-74
2022/06/01 01:59:33;;;;;;;0.60;0.50;;;;;;;26.78;31.55;100956.09;4883766;29;20075;-75
2022/06/01 02:02:06;;;;;;;0.70;0.40;;;;;;;26.72;32.59;100952.75;4888357;29;20542;-73
2022/06/01 02:07:35;;;;;;;1.95;0.60;;;;;;;26.43;33.67;100940.44;4886929;29;20067;-74
2022/06/01 02:12:47;;;;;;;;;;;;;;;26.29;34.13;100953.28;4860544;29;20516;-77
2022/06/01 02:15:22;;;;;;;1.00;0.68;;;;;;;26.21;34.11;100950.91;4890163;29;19927;-74
2022/06/01 02:17:54;;;;;;;0.70;0.57;;;;;;;26.13;34.22;100940.53;4892808;29;20049;-75
2022/06/01 02:20:30;;;;;;;1.10;0.60;;;;;;;26.07;34.34;100956.66;4890713;29;20063;-74
2022/06/01 02:23:00;;;;;;;0.98;0.50;;;;;;;26.03;35.08;100956.81;4892545;29;20056;-75
2022/06/01 02:25:29;;;;;;;0.60;0.55;;;;;;;25.98;35.21;100954.28;4880857;29;20167;-74
2022/06/01 02:28:00;;;;;;;0.88;0.45;;;;;;;25.93;35.65;100953.56;4895545;29;20498;-75
2022/06/01 02:30:34;;;;;;;0.65;0.50;;;;;;;25.89;35.07;100954.59;4893099;29;20056;-76
2022/06/01 02:33:05;;;;;;;1.23;0.60;;;;;;;25.86;34.88;100959.94;4892138;29;20519;-76
2022/06/01 02:35:38;;;;;;;1.17;0.50;;;;;;;25.80;35.63;100955.69;4882366;29;20071;-76
2022/06/01 02:38:12;;;;;;;1.52;0.50;;;;;;;25.75;35.09;100956.72;4903507;29;20044;-76
2022/06/01 02:40:41;;;;;;;1.63;0.60;;;;;;;25.69;35.66;100948.06;4882317;29;20052;-76
2022/06/01 02:43:11;;;;;;;1.35;0.80;;;;;;;25.62;35.10;100946.50;4881025;29;20492;-76
2022/06/01 02:45:40;;;;;;;1.20;0.52;;;;;;;25.54;35.85;100942.34;4885093;29;20071;-76
2022/06/01 02:48:10;;;;;;;2.50;0.75;;;;;;;25.44;35.79;100941.75;4888571;29;20117;-76
2022/06/01 02:50:39;;;;;;;1.13;0.60;;;;;;;25.37;36.22;100945.50;4906330;29;20059;-75
2022/06/01 02:53:08;;;;;;;1.33;0.60;;;;;;;25.27;36.58;100937.81;4895476;29;20075;-76
2022/06/01 02:55:37;;;;;;;3.28;0.50;;;;;;;25.18;36.68;100940.72;4885557;29;20052;-76
2022/06/01 02:58:06;;;;;;;1.13;0.73;;;;;;;25.08;36.80;100948.03;4896824;29;20174;-76
2022/06/01 03:00:40;;;;;;;1.33;0.50;;;;;;;25.01;36.73;100937.63;4884801;29;20503;-76
2022/06/01 03:03:11;;;;;;;1.08;0.57;;;;;;;24.92;36.87;100935.25;4895273;29;20049;-76
2022/06/01 03:05:41;;;;;;;1.52;0.52;;;;;;;24.82;36.85;100938.16;4885502;29;20670;-76
2022/06/01 03:08:11;;;;;;;1.00;0.60;;;;;;;24.74;36.53;100934.84;4896204;29;20057;-76
2022/06/01 03:10:40;;;;;;;0.98;0.60;;;;;;;24.69;37.18;100935.88;4896532;29;20084;-76
2022/06/01 03:13:09;;;;;;;1.55;0.57;;;;;;;24.61;37.61;100923.72;4895762;29;20052;-76
2022/06/01 03:15:39;;;;;;;0.88;0.60;;;;;;;24.54;38.21;100931.84;4885424;29;20052;-76
2022/06/01 03:18:08;;;;;;;0.60;0.60;;;;;;;24.46;38.36;100939.94;4895692;29;20060;-76
2022/06/01 03:20:38;;;;;;;0.77;0.52;;;;;;;24.40;38.52;100940.09;4886270;29;20055;-76
2022/06/01 03:23:07;;;;;;;1.38;0.50;;;;;;;24.33;38.54;100938.53;4895957;29;20086;-75
2022/06/01 03:25:37;;;;;;;4.03;0.70;;;;;;;24.24;38.19;100939.59;4878884;29;20496;-75
2022/06/01 03:28:06;;;;;;;1.15;0.68;;;;;;;24.13;40.03;100929.28;4878522;29;20056;-75
2022/06/01 03:30:36;;;;;;;1.08;0.80;;;;;;;24.04;39.65;100932.16;4879297;29;20519;-76
2022/06/01 03:33:06;;;;;;;2.38;0.88;;;;;;;23.95;39.10;100933.22;4879029;29;20060;-76
2022/06/01 03:35:36;;;;;;;3.42;0.75;;;;;;;23.89;40.20;100929.84;4885827;29;20045;-76
2022/06/01 03:38:06;;;;;;;1.38;0.60;;;;;;;23.77;39.79;100928.34;4904733;29;20052;-76
2022/06/01 03:40:37;;;;;;;1.15;0.90;;;;;;;23.67;40.76;100926.81;4895334;29;20063;-76
2022/06/01 03:43:07;;;;;;;2.67;0.75;;;;;;;23.57;40.80;100929.66;4894341;29;20507;-75
2022/06/01 03:45:57;;;;;;;1.88;0.80;;;;;;;23.46;41.81;100930.78;4883861;29;20059;-78
2022/06/01 03:48:32;;;;;;;1.42;0.90;;;;;;;23.33;41.79;100928.38;4901762;28;20045;-76
2022/06/01 03:51:01;;;;;;;1.83;0.73;;;;;;;23.24;42.53;100927.69;4897754;29;20052;-75
2022/06/01 03:53:30;;;;;;;2.90;0.77;;;;;;;23.12;42.67;100929.69;4904207;29;20079;-76
2022/06/01 03:55:59;;;;;;;1.58;0.70;;;;;;;23.03;42.58;100937.78;4894799;29;20052;-76
2022/06/01 03:58:27;;;;;;;1.35;0.60;;;;;;;22.94;42.80;100941.44;4902422;29;20047;-77
2022/06/01 04:00:56;;;;;;;1.23;0.57;;;;;;;22.84;41.89;100936.34;4883380;29;20068;-75
2022/06/01 04:03:27;;;;;;;2.05;0.60;;;;;;;22.74;43.05;100938.28;4884538;29;20079;-76
2022/06/01 04:05:56;;;;;;;2.45;0.63;;;;;;;22.66;42.93;100941.06;4882933;29;20061;-76
2022/06/01 04:08:24;;;;;;;2.28;0.90;;;;;;;22.54;43.62;100947.44;4877748;29;20053;-74
2022/06/01 04:10:53;;;;;;;0.93;0.60;;;;;;;22.45;43.11;100949.31;4892691;29;20048;-75
2022/06/01 04:13:25;;;;;;;1.52;0.70;;;;;;;22.38;44.39;100951.22;4889125;29;20052;-77
2022/06/01 04:15:53;;;;;;;1.38;0.90;;;;;;;22.27;45.85;100954.03;4888419;29;20074;-75
2022/06/01 04:18:23;;;;;;;1.00;0.60;;;;;;;22.17;46.25;100962.91;4877980;29;20060;-75
2022/06/01 04:20:55;;;;;;;2.70;1.05;;;;;;;22.08;46.65;100968.31;4893350;29;21281;-76
2022/06/01 04:23:23;;;;;;;;;;;;;;;21.96;46.76;100967.59;4884182;29;20059;-75
2022/06/01 04:25:51;;;;;;;2.67;0.77;;;;;;;21.82;48.31;100972.19;4893547;29;19932;-76
2022/06/01 04:28:20;;;;;;;1.52;0.90;;;;;;;21.68;49.04;100980.28;4896778;29;20048;-76
2022/06/01 04:30:49;;;;;;;1.65;0.82;;;;;;;21.50;51.06;100970.84;4883743;29;20060;-76
2022/06/01 04:33:17;;;;;;;6.75;1.20;;;;;;;21.30;55.33;100972.81;4896608;29;20044;-76
2022/06/01 04:35:46;;;;;;;4.68;0.88;;;;;;;21.10;57.47;100971.28;4888195;29;20044;-75
2022/06/01 04:38:18;;;;;;;4.93;0.80;;;;;;;21.01;57.87;100973.16;4889418;29;20044;-76
2022/06/01 04:40:47;;;;;;;;;;;;;;;20.93;56.69;100967.94;4899752;29;20051;-77
2022/06/01 04:43:17;;;;;;;2.17;0.70;;;;;;;20.87;57.09;100968.88;4893263;29;19923;-77
2022/06/01 04:45:45;;;;;;;1.83;0.68;;;;;;;20.84;57.05;100971.53;4900469;29;20054;-78
2022/06/01 04:48:14;;;;;;;3.13;1.10;;;;;;;20.82;57.01;100975.94;4895887;28;20057;-79
2022/06/01 04:50:43;;;;;;;5.45;1.30;;;;;;;20.78;56.83;100978.63;4899013;29;20045;-77
2022/06/01 04:53:13;;;;;;;1.98;0.93;;;;;;;20.74;56.79;100972.50;4885376;29;20124;-76
2022/06/01 04:55:45;;;;;;;1.85;1.02;;;;;;;20.71;55.81;100981.31;4886060;29;20135;-77
2022/06/01 04:58:14;;;;;;;2.50;0.80;;;;;;;20.68;55.23;100972.56;4894649;29;20045;-79
2022/06/01 05:00:43;;;;;;;1.38;0.85;;;;;;;20.65;54.87;100983.09;4881511;29;20476;-79
2022/06/01 05:03:13;;;;;;;2.85;1.15;;;;;;;20.60;54.88;100979.66;4888332;29;20044;-81
2022/06/01 05:05:43;;;;;;;1.23;0.93;;;;;;;20.57;54.77;100983.19;4887837;29;20132;-78
2022/06/01 05:08:13;;;;;;;4.22;1.20;;;;;;;20.53;57.59;100980.56;4886603;29;20052;-79
2022/06/01 05:10:44;;;;;;;2.47;1.20;;;;;;;20.38;56.16;100985.03;4888468;29;20079;-79
2022/06/01 05:13:14;;;;;;;2.80;0.80;;;;;;;20.24;58.56;100985.13;4881233;29;20047;-79
2022/06/01 05:15:48;;;;;;;2.97;0.90;;;;;;;20.16;59.30;100992.19;4883518;29;20057;-77
2022/06/01 05:18:17;;;;;;;1.73;0.80;;;;;;;20.08;62.91;100991.34;4888113;29;20048;-79
2022/06/01 05:20:45;;;;;;;4.07;0.88;;;;;;;19.90;65.80;100988.84;4893610;29;20163;-79
2022/06/01 05:23:16;;;;;;;3.15;1.20;;;;;;;19.73;63.40;100987.16;4886935;29;20077;-79
2022/06/01 05:25:48;;;;;;;1.58;1.05;;;;;;;19.65;62.79;100986.28;4891207;29;20063;-76
2022/06/01 05:28:20;;;;;;;3.53;1.55;;;;;;;19.63;60.92;100986.31;4888542;29;20131;-76
2022/06/01 05:30:48;;;;;;;;;;;;;;;19.63;62.19;100982.78;4891904;29;20131;-76
2022/06/01 05:33:17;;;;;;;1.73;1.10;;;;;;;19.60;64.62;100983.69;4889770;29;20331;-76
2022/06/01 05:35:46;;;;;;;3.55;1.05;;;;;;;19.54;64.62;100981.09;4891125;29;20056;-77
2022/06/01 05:38:15;;;;;;;4.10;1.40;;;;;;;19.51;62.48;100982.84;4903718;29;20158;-77
2022/06/01 05:40:52;;;;;;;2.67;1.08;;;;;;;19.45;61.29;100979.38;4893601;29;20147;-76
2022/06/01 05:43:21;;;;;;;1.73;0.90;;;;;;;19.40;61.54;100978.53;4893743;29;20131;-76
2022/06/01 05:45:51;;;;;;;1.45;1.10;;;;;;;19.36;60.98;100983.78;4887794;29;20048;-75
2022/06/01 05:48:21;;;;;;;2.00;1.20;;;;;;;19.32;61.81;100980.28;4891013;28;20053;-75
2022/06/01 05:50:50;;;;;;;4.00;1.30;;;;;;;19.30;62.87;100981.19;4888287;29;20048;-76
2022/06/01 05:53:19;;;;;;;1.40;1.10;;;;;;;19.16;65.60;100976.81;4888537;29;20128;-76
2022/06/01 05:55:50;;;;;;;3.85;1.55;;;;;;;19.10;66.36;100975.97;4882684;29;20108;-76
2022/06/01 05:58:21;;;;;;;2.95;1.30;;;;;;;19.06;64.90;100969.88;4907241;29;20503;-76
2022/06/01 06:00:51;;;;;;;4.80;2.38;;;;;;;19.03;64.30;100973.38;4894620;29;20053;-76
2022/06/01 06:03:23;;;;;;;2.58;1.70;;;;;;;19.02;64.23;100973.38;4876937;29;20057;-76
2022/06/01 06:08:38;;;;;;;3.35;1.67;;;;;;;18.83;64.40;100972.53;4882631;29;20474;-76
2022/06/01 06:11:09;;;;;;;4.38;1.15;;;;;;;18.75;64.58;100969.00;4893260;29;20135;-76
2022/06/01 06:13:38;;;;;;;2.80;1.52;;;;;;;18.66;64.18;100969.00;4886216;29;20107;-75
2022/06/01 06:16:07;;;;;;;1.80;1.50;;;;;;;18.58;64.85;100956.78;4885235;29;20148;-76
2022/06/01 06:18:36;;;;;;;2.50;1.13;;;;;;;18.58;65.29;100956.78;4884406;29;20071;-76
2022/06/01 06:21:05;;;;;;;1.80;1.55;;;;;;;18.53;65.20;100971.63;4896488;29;20108;-76
2022/06/01 06:23:34;;;;;;;4.63;1.25;;;;;;;18.53;65.37;100973.34;4885321;29;20124;-75
2022/06/01 06:26:03;;;;;;;2.08;1.30;;;;;;;18.43;66.28;100972.50;4896434;29;20143;-76
2022/06/01 06:28:34;;;;;;;3.45;1.45;;;;;;;18.35;66.50;100969.00;4896998;29;20499;-76
2022/06/01 06:31:03;;;;;;;4.53;1.58;;;;;;;18.32;67.59;100979.47;4896860;29;20064;-76
2022/06/01 06:33:32;;;;;;;2.85;1.23;;;;;;;18.26;69.82;100974.25;4890830;29;20135;-75
2022/06/01 06:36:03;;;;;;;2.17;1.13;;;;;;;18.21;70.85;100976.84;4892752;29;20052;-76
2022/06/01 06:38:34;;;;;;;3.92;1.15;;;;;;;18.17;71.90;100981.19;4898014;29;20451;-75
2022/06/01 06:41:03;;;;;;;3.42;1.70;;;;;;;18.06;70.97;100982.91;4894943;29;20507;-76
2022/06/01 06:43:36;;;;;;;3.45;1.40;;;;;;;17.97;70.70;100982.88;4894744;29;20117;-76
2022/06/01 06:46:08;;;;;;;6.07;1.20;;;;;;;17.89;70.73;100988.13;4895442;29;20135;-76
2022/06/01 06:48:38;;;;;;;6.15;1.55;;;;;;;17.80;71.29;100975.84;4903533;28;20091;-76
2022/06/01 06:51:07;;;;;;;2.15;0.90;;;;;;;17.84;70.41;100994.19;4900257;29;20104;-75
2022/06/01 06:53:36;;;;;;;2.25;0.80;;;;;;;17.85;69.72;100996.81;4893195;29;20104;-76
2022/06/01 06:56:06;;;;;;;1.65;1.10;;;;;;;17.84;70.90;100996.81;4888135;29;20116;-75
2022/06/01 06:58:37;;;;;;;1.90;1.30;;;;;;;17.82;70.82;100994.19;4906990;29;20087;-75
2022/06/01 07:01:06;;;;;;;2.72;1.10;;;;;;;17.82;70.05;100995.91;4882685;29;20053;-76
2022/06/01 07:03:35;;;;;;;3.13;1.30;;;;;;;17.78;69.58;100993.28;4886331;29;20045;-76
2022/06/01 07:06:18;;;;;;;1.88;1.08;;;;;;;17.72;73.91;100992.38;4886411;29;20135;-76
2022/06/01 07:08:49;;;;;;;3.17;1.15;;;;;;;17.57;72.19;100993.19;4879201;29;20060;-76
2022/06/01 07:11:20;;;;;;;3.53;1.00;;;;;;;17.55;71.99;100990.56;4896004;29;20116;-76
2022/06/01 07:13:52;;;;;;;2.80;1.52;;;;;;;17.48;72.18;100995.78;4906627;29;20044;-76
2022/06/01 07:16:27;;;;;;;2.38;1.05;;;;;;;17.45;71.89;100990.50;4885828;29;20134;-77
2022/06/01 07:18:59;;;;;;;1.10;0.95;;;;;;;17.44;72.28;100989.63;4897852;29;20056;-76
2022/06/01 07:21:36;;;;;;;2.58;1.33;;;;;;;17.41;73.06;100991.34;4884674;29;20144;-76
2022/06/01 07:24:07;;;;;;;3.70;1.30;;;;;;;17.30;72.10;100979.09;4893920;29;20124;-76
2022/06/01 07:26:39;;;;;;;2.90;1.23;;;;;;;17.23;72.53;100982.56;4895347;29;20052;-76
2022/06/01 07:29:10;;;;;;;2.28;1.20;;;;;;;17.23;73.28;100982.56;4906923;29;20052;-76
2022/06/01 07:31:39;;;;;;;3.05;1.90;;;;;;;17.25;72.14;100991.28;4903452;29;20413;-75
2022/06/01 07:34:08;;;;;;;3.13;1.48;;;;;;;17.25;72.17;100980.81;4908401;29;20047;-75
2022/06/01 07:36:37;;;;;;;2.13;1.55;;;;;;;17.25;71.80;100974.69;4912019;29;20055;-76
2022/06/01 07:44:40;;;;;;;3.55;1.73;;;;;;;17.19;71.85;100979.91;4858056;29;20059;-76
2022/06/01 07:47:10;;;;;;;2.85;1.92;;;;;;;17.16;71.86;100975.53;4896872;29;20045;-76
2022/06/01 07:49:39;;;;;;;5.72;1.70;;;;;;;17.14;72.36;100977.28;4906676;28;20091;-76
2022/06/01 07:52:10;;;;;;;3.60;1.40;;;;;;;17.11;72.64;100972.91;4894124;29;20076;-77
2022/06/01 07:54:40;;;;;;;4.20;1.35;;;;;;;17.05;73.19;100969.38;4895902;29;20123;-76
2022/06/01 07:57:09;;;;;;;2.17;1.50;;;;;;;16.98;73.04;100962.34;4896269;29;20104;-76
2022/06/01 07:59:41;;;;;;;4.60;1.45;;;;;;;17.02;72.97;100971.94;4882441;29;20483;-76
2022/06/01 08:02:10;;;;;;;3.17;1.63;;;;;;;17.00;72.73;100971.94;4878373;29;20184;-76
2022/06/01 08:04:40;;;;;;;4.60;1.20;;;;;;;16.94;72.48;100970.16;4883037;29;20072;-75
2022/06/01 08:07:09;;;;;;;2.97;1.77;;;;;;;16.92;73.08;100964.03;4889449;29;20209;-76
2022/06/01 08:09:38;;;;;;;3.13;1.35;;;;;;;16.84;74.62;100963.13;4880632;29;20133;-74
2022/06/01 08:14:55;;;;;;;4.47;1.38;;;;;;;16.75;75.43;100965.66;4900428;29;20059;-76
2022/06/01 08:17:23;;;;;;;1.70;1.33;;;;;;;16.74;75.63;100962.16;4884599;29;20097;-75
2022/06/01 08:19:52;;;;;;;3.33;1.60;;;;;;;16.75;75.08;100957.81;4884300;29;20072;-76
2022/06/01 08:22:21;;;;;;;3.30;1.75;;;;;;;16.74;74.57;100956.94;4882142;29;20541;-76
2022/06/01 08:24:50;;;;;;;2.95;1.42;;;;;;;16.67;77.51;100969.91;4891743;29;20171;-75
2022/06/01 08:27:19;;;;;;;1.75;1.25;;;;;;;16.62;77.62;100962.06;4887449;29;20088;-76
2022/06/01 08:29:48;;;;;;;4.32;1.40;;;;;;;16.63;77.09;100957.69;4896241;29;20133;-75
2022/06/01 08:32:18;;;;;;;4.88;1.83;;;;;;;16.63;77.41;100961.22;4894780;29;20574;-76
2022/06/01 08:34:47;;;;;;;4.55;1.90;;;;;;;16.64;77.07;100964.69;4880788;29;20167;-76
2022/06/01 08:37:15;;;;;;;3.10;2.15;;;;;;;16.60;76.29;100968.13;4888974;29;20076;-76
2022/06/01 08:39:45;;;;;;;5.07;2.30;;;;;;;16.57;76.71;100968.97;4905584;29;20416;-76
2022/06/01 08:42:17;;;;;;;5.20;2.40;;;;;;;16.49;77.03;100962.81;4901379;29;20055;-76
2022/06/01 08:44:48;;;;;;;4.30;1.83;;;;;;;16.49;78.90;100961.09;4895692;29;20123;-76
2022/06/01 08:47:25;;;;;;;6.70;2.50;;;;;;;16.42;78.57;100959.25;4901320;29;20123;-76
2022/06/01 08:49:54;;;;;;;2.90;1.60;;;;;;;16.41;78.81;100962.75;4904908;28;20169;-76
2022/06/01 08:52:26;;;;;;;5.63;2.58;;;;;;;16.36;80.16;100955.75;4893433;29;20048;-76
2022/06/01 08:54:54;;;;;;;2.47;1.83;;;;;;;16.26;80.68;100958.28;4890135;29;20044;-76
2022/06/01 08:57:28;;;;;;;6.13;2.25;;;;;;;16.23;80.90;100958.22;4898418;29;20083;-76
2022/06/01 09:00:06;;;;;;;10.68;2.13;;;;;;;16.23;80.02;100957.34;4893543;29;20096;-76
2022/06/01 09:02:47;;;;;;;10.35;3.22;;;;;;;16.26;79.74;100954.75;4893236;29;20052;-76
2022/06/01 09:05:18;;;;;;;5.90;2.55;;;;;;;16.28;80.23;100960.88;4876719;29;20100;-75
2022/06/01 09:07:53;;;;;;;6.88;2.60;;;;;;;16.28;79.70;100959.13;4890360;29;20145;-75
2022/06/01 09:10:44;;;;;;;6.30;2.47;;;;;;;16.26;78.74;100958.28;4892657;29;20053;-76
2022/06/01 09:13:15;;;;;;;6.53;2.92;;;;;;;16.23;79.80;100958.22;4904159;29;20135;-76
2022/06/01 09:15:49;;;;;;;8.63;2.15;;;;;;;16.23;79.55;100962.59;4886664;29;20072;-76
2022/06/01 09:18:23;;;;;;;4.10;2.28;;;;;;;16.24;79.58;100964.31;4900138;29;20120;-76
2022/06/01 09:23:39;;;;;;;6.65;2.00;;;;;;;16.18;79.92;100959.94;4891242;29;20134;-76
2022/06/01 09:26:08;;;;;;;3.83;2.00;;;;;;;16.17;79.63;100954.69;4894094;29;20056;-76
2022/06/01 09:28:40;;;;;;;3.47;1.60;;;;;;;16.15;79.38;100956.41;4891208;29;20135;-76
2022/06/01 09:31:23;;;;;;;3.10;1.98;;;;;;;16.13;79.58;100962.50;4887951;29;20048;-76
2022/06/01 09:33:53;;;;;;;4.68;2.30;;;;;;;16.11;79.78;100965.94;4881914;29;20139;-76
2022/06/01 09:36:29;;;;;;;3.85;1.80;;;;;;;16.09;79.29;100965.91;4893672;29;20128;-76
2022/06/01 09:39:01;;;;;;;5.35;2.10;;;;;;;16.08;79.36;100973.72;4904993;29;20444;-76
2022/06/01 09:41:36;;;;;;;5.60;2.35;;;;;;;16.07;80.58;100972.00;4884081;29;20049;-77
2022/06/01 09:44:08;;;;;;;4.25;2.00;;;;;;;16.04;80.54;100978.06;4882579;29;20044;-76
2022/06/01 09:46:50;;;;;;;6.47;2.10;;;;;;;16.03;80.66;100971.06;4883527;29;20081;-76
2022/06/01 09:49:26;;;;;;;3.28;2.00;;;;;;;16.01;80.63;100972.81;4879633;28;20093;-77
2022/06/01 09:51:59;;;;;;;4.55;2.03;;;;;;;16.01;80.25;100970.22;4890144;29;20070;-76
2022/06/01 09:54:32;;;;;;;4.63;2.20;;;;;;;15.98;81.05;100964.94;4878160;29;20044;-75
2022/06/01 09:57:17;;;;;;;;;;;;;;;15.97;80.96;100971.03;4887252;29;20088;-75
2022/06/01 10:08:16;;;;;;;3.45;1.67;;;;;;;15.91;81.17;100973.56;4904852;29;20071;-75
2022/06/01 10:10:58;;;;;;;3.83;1.85;;;;;;;15.85;80.35;100961.34;4895496;29;20087;-76
2022/06/01 10:13:31;;;;;;;;;;;;;;;15.85;80.89;100969.16;4900795;29;20063;-75
2022/06/01 10:16:04;;;;;;;3.03;1.63;;;;;;;15.81;82.04;100967.38;4906915;29;20425;-76
2022/06/01 10:18:35;;;;;;;7.18;1.73;;;;;;;15.81;82.03;100963.88;4897822;29;20159;-76
2022/06/01 10:21:10;;;;;;;4.05;1.67;;;;;;;15.81;82.24;100966.50;4900731;29;20128;-76
2022/06/01 10:23:46;;;;;;;4.75;1.55;;;;;;;15.80;81.74;100962.13;4888392;29;20088;-76
2022/06/01 10:26:20;;;;;;;4.97;1.77;;;;;;;15.76;81.28;100962.94;4888018;29;20562;-75
2022/06/01 10:28:54;;;;;;;2.80;1.35;;;;;;;15.76;81.78;100969.06;4894040;29;20076;-77
2022/06/01 10:31:31;;;;;;;3.65;1.65;;;;;;;15.73;82.38;100960.31;4890526;29;20052;-76
2022/06/01 10:34:04;;;;;;;2.67;1.55;;;;;;;15.72;83.82;100969.88;4886611;29;20046;-76
2022/06/01 10:36:43;;;;;;;2.92;1.55;;;;;;;15.72;83.50;100963.78;4895647;29;20503;-76
2022/06/01 10:39:25;;;;;;;3.67;1.40;;;;;;;15.72;82.63;100969.00;4881993;29;20617;-76
2022/06/01 10:42:03;;;;;;;3.80;1.52;;;;;;;15.67;82.89;100961.97;4888675;29;20057;-77
2022/06/01 10:44:42;;;;;;;4.05;1.45;;;;;;;15.67;83.12;100961.97;4890739;29;20090;-76
2022/06/01 10:47:17;;;;;;;6.55;1.80;;;;;;;15.67;84.59;100954.13;4902707;29;20131;-75
2022/06/01 10:49:58;;;;;;;4.25;1.50;;;;;;;15.68;85.94;100955.88;4895281;28;20059;-76
2022/06/01 10:52:33;;;;;;;5.32;1.40;;;;;;;15.67;85.83;100950.66;4911298;29;20143;-76
2022/06/01 10:55:14;;;;;;;3.05;1.50;;;;;;;15.67;84.72;100948.03;4899466;29;20462;-76
2022/06/01 10:57:46;;;;;;;1.90;1.15;;;;;;;15.66;85.59;100944.53;4899016;29;20108;-76
2022/06/01 11:00:17;;;;;;;3.80;1.20;;;;;;;15.64;84.53;100945.38;4900873;29;20110;-76
2022/06/01 11:03:05;;;;;;;2.00;1.17;;;;;;;15.64;84.83;100940.16;4898822;29;20394;-75
2022/06/01 11:05:42;;;;;;;1.58;1.17;;;;;;;15.63;84.70;100936.69;4912748;29;20127;-75
2022/06/01 11:08:30;;;;;;;4.63;1.08;;;;;;;15.62;85.04;100937.56;4908728;29;20108;-76
2022/06/01 11:11:09;;;;;;;2.85;1.10;;;;;;;15.60;84.68;100930.53;4909884;29;20048;-75
2022/06/01 11:14:04;;;;;;;1.65;1.20;;;;;;;15.58;86.21;100925.34;4906712;29;20087;-75
2022/06/01 11:16:50;;;;;;;1.40;1.10;;;;;;;15.59;85.22;100923.59;4910765;29;20111;-75
2022/06/01 11:19:36;;;;;;;2.47;1.23;;;;;;;15.58;84.27;100932.28;4906244;29;20057;-76
2022/06/01 11:22:16;;;;;;;2.55;1.42;;;;;;;15.57;85.09;100927.91;4904191;29;20052;-76
2022/06/01 11:25:04;;;;;;;1.92;1.30;;;;;;;15.54;84.95;100923.53;4912530;29;20135;-75
2022/06/01 11:27:46;;;;;;;2.92;1.45;;;;;;;15.50;85.56;100925.22;4908595;29;20052;-75
2022/06/01 11:30:20;;;;;;;1.95;1.20;;;;;;;15.47;85.31;100924.34;4912690;29;20048;-75
2022/06/01 11:32:56;;;;;;;3.63;1.10;;;;;;;15.47;86.25;100924.34;4911370;29;20128;-75
2022/06/01 11:35:34;;;;;;;3.33;1.45;;;;;;;15.46;86.18;100926.06;4900466;29;20511;-76
2022/06/01 11:38:09;;;;;;;2.58;1.20;;;;;;;15.42;86.54;100926.88;4911824;29;20059;-76
2022/06/01 11:40:49;;;;;;;2.45;1.30;;;;;;;15.39;86.84;100928.56;4899067;29;20143;-77
2022/06/01 11:43:28;;;;;;;2.17;1.40;;;;;;;15.31;87.49;100925.88;4899746;29;20151;-76
2022/06/01 11:46:02;;;;;;;3.10;1.52;;;;;;;15.24;88.82;100939.69;4909339;29;20051;-76
2022/06/01 11:48:40;;;;;;;2.22;1.10;;;;;;;15.22;nan;100942.25;4912816;28;20139;-76
2022/06/01 11:51:16;;;;;;;8.35;1.17;;;;;;;15.25;88.86;100934.47;4884065;29;20136;-77
2022/06/01 11:54:00;;;;;;;1.92;1.10;;;;;;;15.28;88.92;100939.75;4879133;29;20136;-76
2022/06/01 11:56:44;;;;;;;2.05;0.90;;;;;;;15.30;90.78;100939.75;4883549;29;20180;-77
2022/06/01 11:59:22;;;;;;;1.33;1.15;;;;;;;15.32;90.45;100939.78;4887348;29;20500;-76
2022/06/01 12:02:05;;;;;;;5.40;1.20;;;;;;;15.33;90.36;100944.16;4890865;29;20132;-76
2022/06/01 12:04:52;;;;;;;1.08;0.95;;;;;;;15.33;91.11;100944.16;4891029;29;20083;-77
2022/06/01 12:07:27;;;;;;;5.75;1.73;;;;;;;15.32;91.31;100950.19;4891626;29;20520;-76
2022/06/01 12:10:03;;;;;;;4.20;1.20;;;;;;;15.31;91.74;100941.50;4894240;29;20053;-76
2022/06/01 12:13:01;;;;;;;1.45;1.15;;;;;;;15.23;93.40;100943.13;4901757;29;20131;-76
2022/06/01 12:15:36;;;;;;;2.10;1.20;;;;;;;15.12;96.03;100953.44;4907342;29;20084;-77
2022/06/01 12:18:24;;;;;;;1.75;1.10;;;;;;;15.01;96.27;100958.47;4894948;29;20452;-76